createdAt,value
2023-02-27T06:03:05.443Z,95895.00
2023-02-27T06:04:06.396Z,95897.00
2023-02-27T06:05:06.425Z,95895.00
2023-02-27T06:07:08.374Z,95895.00
2023-02-27T06:08:06.507Z,95897.00
2023-02-27T06:09:06.475Z,95893.00
2023-02-27T06:10:05.473Z,95893.00
2023-02-27T06:11:06.470Z,95891.00
2023-02-27T06:12:06.464Z,95893.00
2023-02-27T06:13:06.462Z,95893.00
2023-02-27T06:14:06.437Z,95897.00
2023-02-27T06:15:05.435Z,95895.00
2023-02-27T06:16:06.431Z,95891.00
2023-02-27T06:17:05.522Z,95897.00
2023-02-27T06:18:06.427Z,95897.00
2023-02-27T06:19:06.451Z,95899.00
2023-02-27T06:20:06.399Z,95901.00
2023-02-27T06:21:05.407Z,95901.00
2023-02-27T06:22:06.380Z,95899.00
2023-02-27T06:23:05.388Z,95905.00
2023-02-27T06:24:06.366Z,95905.00
2023-02-27T06:25:05.361Z,95905.00
2023-02-27T06:26:06.362Z,95907.00
2023-02-27T06:27:05.375Z,95907.00
2023-02-27T06:28:06.338Z,95909.00
2023-02-27T06:29:06.331Z,95909.00
2023-02-27T06:30:05.337Z,95913.00
2023-02-27T06:31:05.440Z,95915.00
2023-02-27T06:32:05.367Z,95915.00
2023-02-27T06:33:06.320Z,95911.00
2023-02-27T06:34:06.353Z,95917.00
2023-02-27T06:36:06.342Z,95915.00
2023-02-27T06:37:06.288Z,95919.00
2023-02-27T06:38:06.281Z,95917.00
2023-02-27T06:39:06.271Z,95915.00
2023-02-27T06:40:06.325Z,95917.00
2023-02-27T06:41:06.243Z,95917.00
2023-02-27T06:42:06.264Z,95915.00
2023-02-27T06:43:06.242Z,95917.00
2023-02-27T06:44:06.226Z,95919.00
2023-02-27T06:45:06.242Z,95915.00
2023-02-27T06:46:05.252Z,95917.00
2023-02-27T06:47:06.217Z,95921.00
2023-02-27T06:48:06.220Z,95921.00
2023-02-27T06:49:06.190Z,95917.00
2023-02-27T06:50:06.183Z,95919.00
2023-02-27T06:51:06.347Z,95919.00
2023-02-27T06:52:06.200Z,95917.00
2023-02-27T06:53:05.175Z,95915.00
2023-02-27T06:54:06.158Z,95919.00
2023-02-27T06:55:06.152Z,95921.00
2023-02-27T06:56:06.163Z,95921.00
2023-02-27T06:57:06.140Z,95921.00
2023-02-27T06:58:06.151Z,95923.00
2023-02-27T06:59:06.128Z,95915.00
2023-02-27T07:00:06.115Z,95919.00
2023-02-27T07:01:06.142Z,95917.00
2023-02-27T07:02:06.104Z,95919.00
2023-02-27T07:03:05.124Z,95919.00
2023-02-27T07:04:06.094Z,95915.00
2023-02-27T07:05:06.090Z,95917.00
2023-02-27T07:06:06.090Z,95917.00
2023-02-27T07:07:35.268Z,95917.00
2023-02-27T07:08:06.064Z,95915.00
2023-02-27T07:09:06.733Z,95915.00
2023-02-27T07:10:06.045Z,95917.00
2023-02-27T07:11:06.047Z,95913.00
2023-02-27T07:12:06.034Z,95913.00
2023-02-27T07:13:06.046Z,95917.00
2023-02-27T07:14:06.029Z,95915.00
2023-02-27T07:15:06.045Z,95915.00
2023-02-27T07:16:06.073Z,95915.00
2023-02-27T07:17:06.013Z,95913.00
2023-02-27T07:18:05.994Z,95913.00
2023-02-27T07:19:07.859Z,95913.00
2023-02-27T07:20:04.990Z,95913.00
2023-02-27T07:21:05.979Z,95915.00
2023-02-27T07:22:05.983Z,95917.00
2023-02-27T07:23:06.007Z,95919.00
2023-02-27T07:24:04.985Z,95917.00
2023-02-27T07:25:05.959Z,95915.00
2023-02-27T07:26:05.952Z,95915.00
2023-02-27T07:27:05.937Z,95919.00
2023-02-27T07:28:06.013Z,95917.00
2023-02-27T07:29:05.930Z,95915.00
2023-02-27T07:30:05.919Z,95919.00
2023-02-27T07:31:05.945Z,95915.00
2023-02-27T07:32:05.954Z,95917.00
2023-02-27T07:33:05.899Z,95919.00
2023-02-27T07:34:05.903Z,95921.00
2023-02-27T07:35:05.880Z,95925.00
2023-02-27T07:36:05.907Z,95921.00
2023-02-27T07:37:04.866Z,95925.00
2023-02-27T07:38:05.861Z,95921.00
2023-02-27T07:39:05.882Z,95921.00
2023-02-27T07:40:05.855Z,95923.00
2023-02-27T07:41:04.853Z,95923.00
2023-02-27T07:42:05.844Z,95925.00
2023-02-27T07:43:05.867Z,95925.00
2023-02-27T07:44:05.828Z,95925.00
2023-02-27T07:45:05.821Z,95927.00
2023-02-27T07:46:05.867Z,95925.00
2023-02-27T07:47:05.813Z,95925.00
2023-02-27T07:48:05.817Z,95927.00
2023-02-27T07:49:05.801Z,95927.00
2023-02-27T07:50:05.788Z,95921.00
2023-02-27T07:51:05.790Z,95921.00
2023-02-27T07:52:05.808Z,95921.00
2023-02-27T07:53:06.154Z,95923.00
2023-02-27T07:54:05.940Z,95923.00
2023-02-27T07:55:05.987Z,95923.00
2023-02-27T07:56:06.044Z,95923.00
2023-02-27T07:57:05.100Z,95928.00
2023-02-27T07:58:06.671Z,95928.00
2023-02-27T07:59:06.226Z,95932.00
2023-02-27T08:00:06.267Z,95930.00
2023-02-27T08:07:06.672Z,95934.00
2023-02-27T08:08:05.722Z,95942.00
2023-02-27T08:10:06.830Z,95942.00
2023-02-27T08:11:05.919Z,95944.00
2023-02-27T08:12:06.922Z,95946.00
2023-02-27T08:13:06.977Z,95950.00
2023-02-27T08:15:06.062Z,95948.00
2023-02-27T08:16:07.146Z,95952.00
2023-02-27T08:17:06.110Z,95948.00
2023-02-27T08:19:06.200Z,95948.00
2023-02-27T08:21:07.253Z,95948.00
2023-02-27T08:22:07.312Z,95948.00
2023-02-27T08:23:07.358Z,95946.00
2023-02-27T08:24:07.347Z,95946.00
2023-02-27T08:26:06.420Z,95948.00
2023-02-27T08:27:07.498Z,95950.00
2023-02-27T08:30:07.559Z,95950.00
2023-02-27T08:32:07.662Z,95948.00
2023-02-27T08:33:07.652Z,95954.00
2023-02-27T08:34:10.606Z,95952.00
2023-02-27T08:35:07.670Z,95948.00
2023-02-27T08:37:06.664Z,95948.00
2023-02-27T08:38:07.664Z,95950.00
2023-02-27T08:42:07.611Z,95956.00
2023-02-27T08:43:07.634Z,95956.00
2023-02-27T08:44:06.612Z,95958.00
2023-02-27T08:45:07.601Z,95958.00
2023-02-27T08:46:07.642Z,95960.00
2023-02-27T08:47:07.576Z,95960.00
2023-02-27T08:48:07.686Z,95960.00
2023-02-27T08:49:07.585Z,95962.00
2023-02-27T08:50:06.567Z,95960.00
2023-02-27T08:51:07.567Z,95962.00
2023-02-27T08:52:07.545Z,95964.00
2023-02-27T08:55:07.529Z,95966.00
2023-02-27T08:56:06.528Z,95968.00
2023-02-27T08:57:07.526Z,95968.00
2023-02-27T08:58:06.525Z,95968.00
2023-02-27T08:59:07.532Z,95968.00
2023-02-27T09:00:07.614Z,95970.00
2023-02-27T09:01:06.553Z,95968.00
2023-02-27T09:02:07.469Z,95972.00
2023-02-27T09:03:06.569Z,95975.00
2023-02-27T09:04:07.461Z,95972.00
2023-02-27T09:05:06.457Z,95975.00
2023-02-27T09:06:07.441Z,95975.00
2023-02-27T09:07:06.448Z,95973.00
2023-02-27T09:08:07.436Z,95973.00
2023-02-27T09:09:07.438Z,95975.00
2023-02-27T09:10:07.452Z,95975.00
2023-02-27T09:11:07.446Z,95975.00
2023-02-27T09:12:07.435Z,95972.00
2023-02-27T09:13:07.435Z,95973.00
2023-02-27T09:14:07.440Z,95973.00
2023-02-27T09:15:07.477Z,95975.00
2023-02-27T09:16:07.510Z,95977.00
2023-02-27T09:17:07.550Z,95981.00
2023-02-27T09:18:07.575Z,95979.00
2023-02-27T09:19:07.625Z,95981.00
2023-02-27T09:20:07.658Z,95983.00
2023-02-27T09:21:06.727Z,95983.00
2023-02-27T09:22:07.764Z,95985.00
2023-02-27T09:23:07.815Z,95983.00
2023-02-27T09:24:19.043Z,95983.00
2023-02-27T09:25:07.849Z,95989.00
2023-02-27T09:26:07.858Z,95987.00
2023-02-27T09:27:07.849Z,95987.00
2023-02-27T09:28:07.839Z,95991.00
2023-02-27T09:29:07.823Z,95995.00
2023-02-27T09:31:08.158Z,95993.00
2023-02-27T09:32:08.026Z,95993.00
2023-02-27T09:33:07.814Z,95995.00
2023-02-27T09:34:07.802Z,95997.00
2023-02-27T09:35:07.785Z,95995.00
2023-02-27T09:36:06.881Z,95999.00
2023-02-27T09:38:07.777Z,96001.00
2023-02-27T09:40:07.747Z,96005.00
2023-02-27T09:41:07.754Z,95999.00
2023-02-27T09:42:07.739Z,96003.00
2023-02-27T09:43:07.236Z,96003.00
2023-02-27T09:44:07.713Z,95997.00
2023-02-27T09:45:07.736Z,96001.00
2023-02-27T09:46:07.770Z,96003.00
2023-02-27T09:47:07.736Z,96001.00
2023-02-27T09:48:06.703Z,96003.00
2023-02-27T09:49:07.676Z,96003.00
2023-02-27T09:50:07.687Z,96001.00
2023-02-27T09:51:07.669Z,96003.00
2023-02-27T09:53:07.660Z,96001.00
2023-02-27T09:54:07.649Z,96005.00
2023-02-27T09:55:07.640Z,96011.00
2023-02-27T09:56:06.634Z,96013.00
2023-02-27T09:57:07.631Z,96015.00
2023-02-27T09:58:07.759Z,96011.00
2023-02-27T09:59:07.622Z,96011.00
2023-02-27T10:00:07.641Z,96013.00
2023-02-27T10:01:07.642Z,96013.00
2023-02-27T10:02:06.639Z,96013.00
2023-02-27T10:03:07.681Z,96015.00
2023-02-27T10:04:10.753Z,96017.00
2023-02-27T10:05:07.582Z,96015.00
2023-02-27T10:06:07.280Z,96015.00
2023-02-27T10:07:07.559Z,96017.00
2023-02-27T10:08:07.568Z,96015.00
2023-02-27T10:09:07.545Z,96015.00
2023-02-27T10:10:07.543Z,96015.00
2023-02-27T10:11:06.535Z,96017.00
2023-02-27T10:12:07.585Z,96017.00
2023-02-27T10:13:07.526Z,96020.00
2023-02-27T10:14:07.519Z,96024.00
2023-02-27T10:15:07.524Z,96020.00
2023-02-27T10:16:06.501Z,96019.00
2023-02-27T10:17:06.556Z,96028.00
2023-02-27T10:18:20.168Z,96028.00
2023-02-27T10:19:07.530Z,96028.00
2023-02-27T10:20:06.472Z,96028.00
2023-02-27T10:21:07.479Z,96030.00
2023-02-27T10:22:07.467Z,96028.00
2023-02-27T10:23:06.444Z,96034.00
2023-02-27T10:24:07.926Z,96032.00
2023-02-27T10:25:15.156Z,96032.00
2023-02-27T10:26:07.445Z,96030.00
2023-02-27T10:27:06.445Z,96034.00
2023-02-27T10:28:07.416Z,96034.00
2023-02-27T10:29:07.416Z,96036.00
2023-02-27T10:30:08.425Z,96038.00
2023-02-27T10:31:07.558Z,96038.00
2023-02-27T10:32:07.443Z,96036.00
2023-02-27T10:33:07.396Z,96034.00
2023-02-27T10:34:07.389Z,96034.00
2023-02-27T10:35:07.402Z,96038.00
2023-02-27T10:36:07.396Z,96036.00
2023-02-27T10:37:06.358Z,96036.00
2023-02-27T10:38:06.354Z,96038.00
2023-02-27T10:39:07.408Z,96042.00
2023-02-27T10:40:07.329Z,96040.00
2023-02-27T10:41:07.338Z,96042.00
2023-02-27T10:42:07.334Z,96042.00
2023-02-27T10:43:06.582Z,96044.00
2023-02-27T10:44:07.402Z,96044.00
2023-02-27T10:45:07.394Z,96044.00
2023-02-27T10:46:07.536Z,96040.00
2023-02-27T10:47:07.489Z,96042.00
2023-02-27T10:48:06.553Z,96040.00
2023-02-27T10:49:07.711Z,96046.00
2023-02-27T10:50:07.636Z,96042.00
2023-02-27T10:51:06.800Z,96038.00
2023-02-27T10:52:07.729Z,96044.00
2023-02-27T10:53:07.787Z,96040.00
2023-02-27T10:54:06.829Z,96044.00
2023-02-27T10:55:07.883Z,96038.00
2023-02-27T10:56:07.901Z,96042.00
2023-02-27T10:57:07.915Z,96038.00
2023-02-27T10:58:07.910Z,96040.00
2023-02-27T10:59:06.906Z,96044.00
2023-02-27T11:00:07.907Z,96040.00
2023-02-27T11:01:08.285Z,96042.00
2023-02-27T11:02:08.095Z,96044.00
2023-02-27T11:03:07.939Z,96048.00
2023-02-27T11:04:07.991Z,96046.00
2023-02-27T11:05:07.980Z,96044.00
2023-02-27T11:06:08.065Z,96048.00
2023-02-27T11:07:08.037Z,96046.00
2023-02-27T11:08:07.158Z,96048.00
2023-02-27T11:09:08.070Z,96046.00
2023-02-27T11:10:08.101Z,96044.00
2023-02-27T11:11:07.156Z,96042.00
2023-02-27T11:12:08.165Z,96044.00
2023-02-27T11:13:08.233Z,96046.00
2023-02-27T11:14:08.271Z,96044.00
2023-02-27T11:15:08.267Z,96042.00
2023-02-27T11:16:08.391Z,96044.00
2023-02-27T11:17:08.357Z,96044.00
2023-02-27T11:18:08.401Z,96046.00
2023-02-27T11:19:08.549Z,96044.00
2023-02-27T11:20:08.501Z,96044.00
2023-02-27T11:21:08.533Z,96044.00
2023-02-27T11:22:08.580Z,96042.00
2023-02-27T11:23:08.662Z,96052.00
2023-02-27T11:24:08.686Z,96048.00
2023-02-27T11:25:08.792Z,96048.00
2023-02-27T11:26:08.798Z,96048.00
2023-02-27T11:27:07.838Z,96050.00
2023-02-27T11:28:08.910Z,96046.00
2023-02-27T11:29:08.979Z,96048.00
2023-02-27T11:30:09.038Z,96052.00
2023-02-27T11:31:08.129Z,96046.00
2023-02-27T11:32:09.163Z,96046.00
2023-02-27T11:33:09.181Z,96048.00
2023-02-27T11:34:09.253Z,96048.00
2023-02-27T11:35:09.297Z,96046.00
2023-02-27T11:36:09.506Z,96044.00
2023-02-27T11:37:09.440Z,96040.00
2023-02-27T11:38:09.498Z,96042.00
2023-02-27T11:39:09.578Z,96044.00
2023-02-27T11:40:09.634Z,96042.00
2023-02-27T11:41:09.688Z,96040.00
2023-02-27T11:42:09.745Z,96042.00
2023-02-27T11:43:09.787Z,96044.00
2023-02-27T11:44:10.235Z,96044.00
2023-02-27T11:45:09.880Z,96042.00
2023-02-27T11:46:35.069Z,96046.00
2023-02-27T11:47:09.967Z,96046.00
2023-02-27T11:48:08.901Z,96046.00
2023-02-27T11:49:09.907Z,96042.00
2023-02-27T11:50:10.043Z,96046.00
2023-02-27T11:51:09.872Z,96046.00
2023-02-27T11:52:08.874Z,96046.00
2023-02-27T11:53:08.872Z,96044.00
2023-02-27T11:54:09.880Z,96046.00
2023-02-27T11:55:08.891Z,96046.00
2023-02-27T11:56:09.842Z,96046.00
2023-02-27T11:57:08.846Z,96044.00
2023-02-27T11:58:09.857Z,96042.00
2023-02-27T11:59:09.834Z,96042.00
2023-02-27T12:00:09.846Z,96042.00
2023-02-27T12:01:09.820Z,96044.00
2023-02-27T12:02:09.802Z,96040.00
2023-02-27T12:03:09.856Z,96042.00
2023-02-27T12:04:09.849Z,96040.00
2023-02-27T12:05:08.769Z,96042.00
2023-02-27T12:06:09.772Z,96042.00
2023-02-27T12:07:09.758Z,96040.00
2023-02-27T12:09:08.746Z,96042.00
2023-02-27T12:10:09.757Z,96044.00
2023-02-27T12:11:14.139Z,96044.00
2023-02-27T12:12:09.923Z,96042.00
2023-02-27T12:13:09.987Z,96044.00
2023-02-27T12:14:10.044Z,96044.00
2023-02-27T12:15:09.049Z,96046.00
2023-02-27T12:16:10.188Z,96044.00
2023-02-27T12:18:09.159Z,96046.00
2023-02-27T12:19:10.188Z,96046.00
2023-02-27T12:20:10.216Z,96044.00
2023-02-27T12:22:09.289Z,96044.00
2023-02-27T12:23:09.297Z,96044.00
2023-02-27T12:24:10.338Z,96046.00
2023-02-27T12:25:10.371Z,96046.00
2023-02-27T12:26:09.387Z,96044.00
2023-02-27T12:27:10.446Z,96044.00
2023-02-27T12:29:10.500Z,96042.00
2023-02-27T12:32:09.713Z,96036.00
2023-02-27T12:33:10.673Z,96038.00
2023-02-27T12:34:10.713Z,96040.00
2023-02-27T12:35:10.753Z,96040.00
2023-02-27T12:36:09.786Z,96040.00
2023-02-27T12:39:10.250Z,96040.00
2023-02-27T12:40:10.893Z,96042.00
2023-02-27T12:42:10.011Z,96042.00
2023-02-27T12:49:11.488Z,96040.00
2023-02-27T12:59:10.454Z,96036.00
2023-02-27T13:00:10.445Z,96036.00
2023-02-27T13:01:10.473Z,96032.00
2023-02-27T13:02:10.455Z,96030.00
2023-02-27T13:07:10.554Z,96028.00
2023-02-27T13:36:11.680Z,96032.00
2023-02-27T13:37:11.732Z,96032.00
2023-02-27T13:38:11.701Z,96032.00
2023-02-27T13:39:10.728Z,96032.00
2023-02-27T13:40:11.757Z,96034.00
2023-02-27T13:41:10.813Z,96036.00
2023-02-27T13:55:12.468Z,96038.00
2023-02-27T13:57:12.426Z,96036.00
2023-02-27T13:58:12.470Z,96040.00
2023-02-27T14:01:12.672Z,96036.00
2023-02-27T14:03:12.771Z,96042.00
2023-02-27T14:04:12.808Z,96042.00
2023-02-27T14:06:12.890Z,96046.00
2023-02-27T14:07:12.948Z,96044.00
2023-02-27T14:08:13.008Z,96044.00
2023-02-27T14:09:15.307Z,96044.00
2023-02-27T14:10:13.151Z,96046.00
2023-02-27T14:11:13.055Z,96044.00
2023-02-27T14:12:13.049Z,96046.00
2023-02-27T14:13:13.036Z,96044.00
2023-02-27T14:14:13.103Z,96044.00
2023-02-27T14:15:13.029Z,96048.00
2023-02-27T14:16:13.068Z,96046.00
2023-02-27T14:17:13.010Z,96046.00
2023-02-27T14:18:25.704Z,96048.00
2023-02-27T14:19:13.054Z,96050.00
2023-02-27T14:20:12.980Z,96048.00
2023-02-27T14:23:12.993Z,96044.00
2023-02-27T14:24:12.971Z,96044.00
2023-02-27T14:25:12.943Z,96046.00
2023-02-27T14:26:12.951Z,96046.00
2023-02-27T14:28:12.919Z,96046.00
2023-02-27T14:32:12.949Z,96038.00
2023-02-27T14:34:12.880Z,96044.00
2023-02-27T14:35:12.901Z,96042.00
2023-02-27T14:37:12.874Z,96046.00
2023-02-27T14:38:12.853Z,96044.00
2023-02-27T14:39:12.835Z,96042.00
2023-02-27T14:40:21.204Z,96044.00
2023-02-27T14:41:12.826Z,96040.00
2023-02-27T14:44:12.806Z,96046.00
2023-02-27T14:45:12.804Z,96046.00
2023-02-27T14:46:12.819Z,96048.00
2023-02-27T14:47:12.779Z,96052.00
2023-02-27T14:48:12.804Z,96050.00
2023-02-27T14:50:12.777Z,96054.00
2023-02-27T14:51:12.807Z,96054.00
2023-02-27T14:52:12.752Z,96052.00
2023-02-27T14:53:12.742Z,96054.00
2023-02-27T14:55:12.740Z,96056.00
2023-02-27T14:56:12.739Z,96056.00
2023-02-27T14:58:12.703Z,96058.00
2023-02-27T14:59:12.709Z,96058.00
2023-02-27T15:01:12.727Z,96058.00
2023-02-27T15:02:12.688Z,96060.00
2023-02-27T15:04:12.748Z,96062.00
2023-02-27T15:05:12.662Z,96062.00
2023-02-27T15:06:12.651Z,96060.00
2023-02-27T15:08:12.640Z,96060.00
2023-02-27T15:11:12.631Z,96062.00
2023-02-27T15:12:12.620Z,96064.00
2023-02-27T15:14:12.615Z,96064.00
2023-02-27T15:15:12.724Z,96064.00
2023-02-27T15:16:16.625Z,96066.00
2023-02-27T15:17:12.599Z,96067.00
2023-02-27T15:18:12.585Z,96067.00
2023-02-27T15:19:12.581Z,96071.00
2023-02-27T15:21:12.566Z,96073.00
2023-02-27T15:23:12.581Z,96077.00
2023-02-27T15:24:12.545Z,96075.00
2023-02-27T15:26:12.524Z,96075.00
2023-02-27T15:27:13.304Z,96075.00
2023-02-27T15:28:12.523Z,96077.00
2023-02-27T15:29:12.519Z,96075.00
2023-02-27T15:30:12.600Z,96075.00
2023-02-27T15:32:12.546Z,96079.00
2023-02-27T15:36:12.466Z,96077.00
2023-02-27T15:37:12.521Z,96077.00
2023-02-27T15:39:12.472Z,96079.00
2023-02-27T15:43:12.414Z,96081.00
2023-02-27T15:44:12.420Z,96081.00
2023-02-27T15:47:12.375Z,96083.00
2023-02-27T15:49:12.365Z,96083.00
2023-02-27T15:50:12.364Z,96081.00
2023-02-27T15:52:12.335Z,96083.00
2023-02-27T15:55:12.356Z,96089.00
